createdAt,value
2022-10-03T05:45:24.680Z,100.00
2022-10-03T05:55:59.082Z,100.00
2022-10-03T06:06:21.149Z,99.64
2022-10-03T06:16:30.415Z,96.50
2022-10-03T06:26:58.779Z,94.14
2022-10-03T06:37:28.541Z,91.10
2022-10-03T06:48:08.663Z,88.67
2022-10-03T06:58:47.567Z,84.04
2022-10-03T07:09:34.248Z,80.10
2022-10-03T07:19:58.356Z,76.98
2022-10-03T07:30:17.731Z,78.03
2022-10-03T07:40:39.499Z,75.79
2022-10-03T08:01:56.365Z,72.07
2022-10-03T08:12:31.985Z,73.40
2022-10-03T08:22:37.756Z,71.98
2022-10-03T08:32:57.062Z,75.20
2022-10-03T08:43:50.501Z,70.00
2022-10-03T08:54:08.724Z,71.93
2022-10-03T09:04:39.401Z,60.67
2022-10-03T09:15:03.972Z,62.29
2022-10-03T09:25:13.405Z,65.11
2022-10-03T09:35:25.476Z,63.38
2022-10-03T09:45:53.283Z,55.64
2022-10-03T09:56:14.379Z,52.57
2022-10-03T10:06:24.851Z,48.15
2022-10-03T10:16:54.328Z,49.54
2022-10-03T10:27:25.733Z,51.40
2022-10-03T10:38:16.734Z,55.80
2022-10-03T10:48:54.200Z,56.91
2022-10-03T10:59:16.730Z,49.31
2022-10-03T11:09:34.441Z,47.49
2022-10-03T11:20:25.487Z,43.19
2022-10-03T11:54:31.015Z,45.01
2022-10-03T12:04:56.724Z,45.61
2022-10-03T12:15:25.140Z,43.71
2022-10-03T12:25:33.392Z,46.31
2022-10-03T12:35:50.726Z,48.23
2022-10-03T12:46:06.549Z,48.35
2022-10-03T12:56:44.943Z,45.56
2022-10-03T13:07:18.015Z,49.54
2022-10-03T13:17:36.338Z,49.83
2022-10-03T13:27:48.473Z,50.54
2022-10-03T13:38:19.917Z,51.17
2022-10-03T14:32:54.870Z,67.36
2022-10-03T14:43:04.266Z,67.24
2022-10-03T14:53:29.965Z,66.83
2022-10-03T15:03:38.851Z,69.84
2022-10-03T15:13:56.936Z,71.18
2022-10-03T15:24:04.705Z,70.49
2022-10-03T15:34:18.661Z,72.76
2022-10-03T15:44:33.730Z,74.05
2022-10-03T15:54:39.104Z,77.90
2022-10-03T16:04:44.473Z,78.04
2022-10-03T16:14:55.157Z,77.62
2022-10-03T17:42:55.081Z,89.97
2022-10-03T17:53:00.866Z,91.96
2022-10-03T18:03:13.624Z,91.54
2022-10-03T18:13:23.675Z,85.35
2022-10-03T18:23:55.133Z,89.73
2022-10-03T18:34:21.309Z,91.83
2022-10-03T18:44:35.388Z,91.77
2022-10-03T18:55:06.911Z,90.69
2022-10-03T19:05:23.837Z,94.06
2022-10-03T19:16:03.025Z,93.19
2022-10-03T19:26:39.009Z,93.74
2022-10-03T19:36:53.812Z,93.61
2022-10-03T19:47:21.039Z,94.42
2022-10-03T19:57:43.309Z,97.56
2022-10-03T20:08:33.818Z,99.49
2022-10-03T20:18:43.880Z,97.63
2022-10-03T20:29:11.820Z,93.66
2022-10-03T20:39:55.316Z,90.33
2022-10-03T20:50:28.519Z,89.53
2022-10-03T21:00:51.270Z,89.20
2022-10-03T21:11:21.485Z,89.94
2022-10-03T21:21:40.802Z,91.93
2022-10-03T21:32:21.994Z,92.48
2022-10-03T21:42:49.541Z,90.86
2022-10-03T21:53:22.991Z,90.84
2022-10-03T22:03:59.715Z,91.38
2022-10-03T22:14:46.316Z,91.46
2022-10-03T22:25:40.536Z,91.83
2022-10-03T22:36:01.898Z,92.24
